createdAt,value
2022-08-09T00:00:57.862Z,21.37
2022-08-09T00:04:05.590Z,21.36
2022-08-09T00:06:19.654Z,21.32
2022-08-09T00:08:52.006Z,21.26
2022-08-09T00:11:24.810Z,21.25
2022-08-09T00:13:53.549Z,21.23
2022-08-09T00:16:26.416Z,21.19
2022-08-09T00:19:09.400Z,21.16
2022-08-09T00:21:55.609Z,21.15
2022-08-09T00:24:25.049Z,21.14
2022-08-09T00:26:56.007Z,21.11
2022-08-09T00:30:10.381Z,21.05
2022-08-09T00:32:13.117Z,20.92
2022-08-09T00:34:53.625Z,20.84
2022-08-09T00:37:22.882Z,20.80
2022-08-09T00:40:12.322Z,20.78
2022-08-09T00:44:26.374Z,20.75
2022-08-09T00:45:28.561Z,20.69
2022-08-09T00:47:56.581Z,20.68
2022-08-09T00:50:24.641Z,20.63
2022-08-09T00:52:54.375Z,20.58
2022-08-09T00:56:03.342Z,20.52
2022-08-09T00:58:14.708Z,20.48
2022-08-09T01:00:59.159Z,20.44
2022-08-09T01:03:46.351Z,20.41
2022-08-09T01:06:54.747Z,20.34
2022-08-09T01:09:36.801Z,20.31
2022-08-09T01:12:14.874Z,20.32
2022-08-09T01:14:52.656Z,20.31
2022-08-09T01:17:30.407Z,20.28
2022-08-09T01:20:06.332Z,20.29
2022-08-09T01:22:58.104Z,20.30
2022-08-09T01:25:48.798Z,20.23
2022-08-09T01:28:22.846Z,20.25
2022-08-09T01:30:58.951Z,20.25
2022-08-09T01:33:31.416Z,20.24
2022-08-09T01:36:04.856Z,20.23
2022-08-09T01:38:39.886Z,20.23
2022-08-09T01:41:25.927Z,20.20
2022-08-09T01:43:58.250Z,20.19
2022-08-09T01:46:31.688Z,20.14
2022-08-09T01:49:10.164Z,20.11
2022-08-09T01:51:44.627Z,20.11
2022-08-09T01:54:25.231Z,20.05
2022-08-09T01:56:59.143Z,20.08
2022-08-09T01:59:40.873Z,20.12
2022-08-09T02:02:21.951Z,20.11
2022-08-09T02:04:52.208Z,20.13
2022-08-09T02:08:35.764Z,20.13
2022-08-09T02:10:18.425Z,20.08
2022-08-09T02:13:00.457Z,20.09
2022-08-09T02:15:49.627Z,20.12
2022-08-09T02:18:23.750Z,20.11
2022-08-09T02:20:56.682Z,20.13
2022-08-09T02:23:32.013Z,20.13
2022-08-09T02:26:25.156Z,20.11
2022-08-09T02:28:59.983Z,20.06
2022-08-09T02:31:34.266Z,20.00
2022-08-09T02:34:13.741Z,19.97
2022-08-09T02:36:59.382Z,19.96
2022-08-09T02:39:33.433Z,19.96
2022-08-09T02:42:06.620Z,19.94
2022-08-09T02:44:38.027Z,19.88
2022-08-09T02:47:12.804Z,19.83
2022-08-09T02:49:47.501Z,19.81
2022-08-09T02:52:38.373Z,19.76
2022-08-09T02:55:20.002Z,19.74
2022-08-09T02:58:32.910Z,19.69
2022-08-09T03:00:57.558Z,19.62
2022-08-09T03:04:05.805Z,19.60
2022-08-09T03:06:21.463Z,19.53
2022-08-09T03:08:53.129Z,19.45
2022-08-09T03:11:30.056Z,19.42
2022-08-09T03:14:14.257Z,19.43
2022-08-09T03:16:48.192Z,19.38
2022-08-09T03:19:58.336Z,19.36
2022-08-09T03:22:12.077Z,19.30
2022-08-09T03:25:05.797Z,19.28
2022-08-09T03:27:44.981Z,19.26
2022-08-09T03:30:29.350Z,19.22
2022-08-09T03:33:12.893Z,19.17
2022-08-09T03:36:13.510Z,19.12
2022-08-09T03:38:41.820Z,19.11
2022-08-09T03:41:15.236Z,19.11
2022-08-09T03:44:03.777Z,19.10
2022-08-09T03:46:34.275Z,19.05
2022-08-09T03:49:09.135Z,19.06
2022-08-09T03:51:56.612Z,19.06
2022-08-09T03:54:32.330Z,19.05
2022-08-09T03:57:04.439Z,19.07
2022-08-09T03:59:53.668Z,19.11
2022-08-09T04:02:26.530Z,19.14
2022-08-09T04:04:55.857Z,19.16
2022-08-09T04:07:47.083Z,19.16
2022-08-09T04:10:14.153Z,19.16
2022-08-09T04:12:49.875Z,19.20
2022-08-09T04:15:38.785Z,19.22
2022-08-09T04:18:08.089Z,19.20
2022-08-09T04:20:36.698Z,19.23
2022-08-09T04:23:09.696Z,19.24
2022-08-09T04:25:38.559Z,19.24
2022-08-09T04:28:08.944Z,19.21
2022-08-09T04:30:42.769Z,19.19
2022-08-09T04:33:13.233Z,19.16
2022-08-09T04:35:42.598Z,19.17
2022-08-09T04:38:12.397Z,19.18
2022-08-09T04:40:56.226Z,19.18
2022-08-09T04:43:25.954Z,19.14
2022-08-09T04:45:54.519Z,19.12
2022-08-09T04:48:23.926Z,19.13
2022-08-09T04:51:01.904Z,19.09
2022-08-09T04:53:31.939Z,19.08
2022-08-09T04:56:02.555Z,19.05
2022-08-09T04:58:33.903Z,19.03
2022-08-09T05:01:02.723Z,19.05
2022-08-09T05:03:42.756Z,19.03
2022-08-09T05:06:26.717Z,19.02
2022-08-09T05:09:00.310Z,19.03
2022-08-09T05:11:30.630Z,19.04
2022-08-09T05:14:05.774Z,19.02
2022-08-09T05:16:58.301Z,18.96
2022-08-09T05:19:26.177Z,18.95
2022-08-09T05:22:00.329Z,18.94
2022-08-09T05:24:39.476Z,18.91
2022-08-09T05:27:10.016Z,18.93
2022-08-09T05:29:41.679Z,18.93
2022-08-09T05:32:09.774Z,18.94
2022-08-09T05:34:38.721Z,18.90
2022-08-09T05:37:14.015Z,18.93
2022-08-09T05:39:44.595Z,18.96
2022-08-09T05:42:18.023Z,18.98
2022-08-09T05:44:51.530Z,19.01
2022-08-09T05:47:21.682Z,19.04
2022-08-09T05:50:30.096Z,19.04
2022-08-09T05:52:39.573Z,19.02
2022-08-09T05:55:18.165Z,19.03
2022-08-09T05:57:55.360Z,19.04
2022-08-09T06:00:28.816Z,19.06
2022-08-09T06:02:58.236Z,19.09
2022-08-09T06:05:31.160Z,19.07
2022-08-09T06:08:18.969Z,19.05
2022-08-09T06:10:49.841Z,19.06
2022-08-09T06:13:20.723Z,19.08
2022-08-09T06:15:51.039Z,19.14
2022-08-09T06:18:24.868Z,19.23
2022-08-09T06:20:57.121Z,19.33
2022-08-09T06:23:57.357Z,19.41
2022-08-09T06:26:20.920Z,19.47
2022-08-09T06:28:50.166Z,19.57
2022-08-09T06:31:30.509Z,19.65
2022-08-09T06:34:02.575Z,19.74
2022-08-09T06:36:31.774Z,19.87
2022-08-09T06:39:02.430Z,19.98
2022-08-09T06:41:58.870Z,20.23
2022-08-09T06:44:21.402Z,20.50
2022-08-09T06:46:55.308Z,20.73
2022-08-09T06:49:44.573Z,21.04
2022-08-09T06:52:15.638Z,21.27
2022-08-09T06:54:44.381Z,21.53
2022-08-09T06:57:14.311Z,21.87
2022-08-09T07:00:52.719Z,22.16
2022-08-09T07:02:32.193Z,22.44
2022-08-09T07:05:00.895Z,22.67
2022-08-09T07:08:00.721Z,22.91
2022-08-09T07:10:22.545Z,23.13
2022-08-09T07:12:57.859Z,23.31
2022-08-09T07:15:53.967Z,23.44
2022-08-09T07:18:15.344Z,23.62
2022-08-09T07:20:44.536Z,23.77
2022-08-09T07:23:18.206Z,23.96
2022-08-09T07:25:47.875Z,24.15
2022-08-09T07:29:08.156Z,24.28
2022-08-09T07:31:29.385Z,24.55
2022-08-09T07:34:08.432Z,24.82
2022-08-09T07:36:49.318Z,25.03
2022-08-09T07:39:41.300Z,25.19
2022-08-09T07:42:11.708Z,25.21
2022-08-09T07:44:52.043Z,25.32
2022-08-09T07:52:04.804Z,25.50
2022-08-09T07:54:32.084Z,25.59
2022-08-09T07:57:14.906Z,25.74
2022-08-09T08:00:02.633Z,25.93
2022-08-09T08:03:01.991Z,26.21
2022-08-09T08:05:39.278Z,26.43
2022-08-09T08:09:02.122Z,26.67
2022-08-09T08:12:27.569Z,26.92
2022-08-09T08:15:52.722Z,27.14
2022-08-09T08:18:47.136Z,27.36
2022-08-09T08:21:16.110Z,27.34
2022-08-09T08:24:12.181Z,27.40
2022-08-09T08:26:55.770Z,27.62
2022-08-09T08:29:48.587Z,27.78
2022-08-09T08:42:18.024Z,28.35
2022-08-09T08:44:58.545Z,28.56
2022-08-09T08:47:27.798Z,28.63
2022-08-09T08:49:58.339Z,28.63
2022-08-09T08:55:23.520Z,28.97
2022-08-09T08:57:56.489Z,29.14
2022-08-09T09:00:30.455Z,29.11
2022-08-09T09:03:11.121Z,29.19
2022-08-09T09:06:01.199Z,29.16
2022-08-09T09:08:37.765Z,29.13
2022-08-09T09:11:17.434Z,29.26
2022-08-09T09:13:56.418Z,29.38
2022-08-09T09:16:32.233Z,29.55
2022-08-09T09:19:37.764Z,29.80
2022-08-09T09:22:04.025Z,29.95
2022-08-09T09:24:37.195Z,29.86
2022-08-09T09:27:08.577Z,29.91
2022-08-09T09:30:10.636Z,30.02
2022-08-09T09:32:35.131Z,30.10
2022-08-09T09:35:09.053Z,30.33
2022-08-09T09:37:40.382Z,30.49
2022-08-09T09:40:10.281Z,30.68
2022-08-09T09:42:45.995Z,30.68
2022-08-09T09:45:26.720Z,30.66
2022-08-09T09:47:59.655Z,30.59
2022-08-09T09:50:49.342Z,30.60
2022-08-09T09:53:21.122Z,30.95
2022-08-09T09:56:05.135Z,31.04
2022-08-09T09:58:46.049Z,31.04
2022-08-09T10:01:37.625Z,31.09
2022-08-09T10:04:16.028Z,31.24
2022-08-09T10:06:51.607Z,31.18
2022-08-09T10:09:23.823Z,31.25
2022-08-09T10:12:14.887Z,31.33
2022-08-09T10:14:48.597Z,31.62
2022-08-09T10:17:50.667Z,31.63
2022-08-09T10:20:32.256Z,31.57
2022-08-09T10:23:17.232Z,31.64
2022-08-09T10:26:06.998Z,31.82
2022-08-09T10:28:37.548Z,31.95
2022-08-09T10:34:11.161Z,32.17
2022-08-09T10:36:45.589Z,32.29
2022-08-09T10:39:15.723Z,32.49
2022-08-09T10:41:46.217Z,32.46
2022-08-09T10:44:19.542Z,32.42
2022-08-09T10:48:16.651Z,32.37
2022-08-09T10:50:30.787Z,32.60
2022-08-09T10:53:10.562Z,32.77
2022-08-09T10:55:58.073Z,32.91
2022-08-09T10:58:34.511Z,33.01
2022-08-09T11:03:06.627Z,33.17
2022-08-09T11:04:20.080Z,33.24
2022-08-09T11:07:56.886Z,33.23
2022-08-09T11:10:56.580Z,33.05
2022-08-09T11:13:54.142Z,33.31
2022-08-09T11:16:39.194Z,33.45
2022-08-09T11:19:11.245Z,33.71
2022-08-09T11:22:10.322Z,33.78
2022-08-09T11:25:10.353Z,33.55
2022-08-09T11:28:02.940Z,33.70
2022-08-09T11:30:36.790Z,33.62
2022-08-09T11:33:13.062Z,33.61
2022-08-09T11:35:49.603Z,33.75
2022-08-09T11:38:22.314Z,33.96
2022-08-09T11:41:03.215Z,33.76
2022-08-09T11:43:40.791Z,33.72
2022-08-09T11:46:09.452Z,33.62
2022-08-09T11:48:49.351Z,33.67
2022-08-09T11:53:02.177Z,33.86
2022-08-09T11:54:28.039Z,33.86
2022-08-09T11:57:56.448Z,33.90
2022-08-09T12:00:29.915Z,34.11
2022-08-09T12:03:50.213Z,34.17
2022-08-09T12:05:49.889Z,34.08
2022-08-09T12:08:22.082Z,33.56
2022-08-09T12:10:53.675Z,33.57
2022-08-09T12:14:07.941Z,33.54
2022-08-09T12:16:37.748Z,33.76
2022-08-09T12:19:09.589Z,33.90
2022-08-09T12:21:48.439Z,34.10
2022-08-09T12:24:22.342Z,34.14
2022-08-09T12:28:59.481Z,34.08
2022-08-09T12:30:02.102Z,33.96
2022-08-09T12:32:42.426Z,34.15
2022-08-09T12:35:17.025Z,34.20
2022-08-09T12:37:51.818Z,34.05
2022-08-09T12:40:27.482Z,34.10
2022-08-09T12:42:57.017Z,34.20
2022-08-09T12:45:34.005Z,34.37
2022-08-09T12:48:10.802Z,34.42
2022-08-09T12:50:56.504Z,34.46
2022-08-09T12:53:36.691Z,34.40
2022-08-09T12:56:14.626Z,34.40
2022-08-09T12:59:12.306Z,34.34
2022-08-09T13:01:48.997Z,34.45
2022-08-09T13:04:36.954Z,34.57
2022-08-09T13:07:14.368Z,34.70
2022-08-09T13:09:55.081Z,34.78
2022-08-09T13:12:28.370Z,34.76
2022-08-09T13:15:05.071Z,34.45
2022-08-09T13:18:03.642Z,34.43
2022-08-09T13:20:37.911Z,34.49
2022-08-09T13:24:42.563Z,34.51
2022-08-09T13:26:41.782Z,34.65
2022-08-09T13:29:12.957Z,34.73
2022-08-09T13:32:20.336Z,34.80
2022-08-09T13:34:50.161Z,34.93
2022-08-09T13:37:51.445Z,35.10
2022-08-09T13:41:50.540Z,35.11
2022-08-09T13:42:58.818Z,35.22
2022-08-09T13:45:32.584Z,35.35
2022-08-09T13:48:15.546Z,35.22
2022-08-09T13:50:44.999Z,35.17
2022-08-09T13:53:16.620Z,35.16
2022-08-09T13:55:44.730Z,35.37
2022-08-09T13:58:15.731Z,35.54
2022-08-09T14:00:49.823Z,35.67
2022-08-09T14:04:05.487Z,35.63
2022-08-09T14:06:19.321Z,35.62
2022-08-09T14:08:54.330Z,35.73
2022-08-09T14:11:23.113Z,35.48
2022-08-09T14:14:22.123Z,35.37
2022-08-09T14:16:40.232Z,35.38
2022-08-09T14:19:08.184Z,35.41
2022-08-09T14:21:37.495Z,35.50
2022-08-09T14:24:18.303Z,35.61
2022-08-09T14:26:51.793Z,35.70
2022-08-09T14:30:04.271Z,35.58
2022-08-09T14:32:11.404Z,35.50
2022-08-09T14:34:42.037Z,35.48
2022-08-09T14:37:11.401Z,35.43
2022-08-09T14:39:48.011Z,35.33
2022-08-09T14:42:30.724Z,35.29
2022-08-09T14:46:46.095Z,35.41
2022-08-09T14:47:58.495Z,35.51
2022-08-09T14:50:28.830Z,35.50
2022-08-09T14:52:58.040Z,35.51
2022-08-09T14:55:32.800Z,35.65
2022-08-09T14:58:02.953Z,35.49
2022-08-09T15:00:31.957Z,35.50
2022-08-09T15:03:01.286Z,35.46
2022-08-09T15:05:29.483Z,35.57
2022-08-09T15:07:59.200Z,35.55
2022-08-09T15:10:27.170Z,35.57
2022-08-09T15:12:55.967Z,35.63
2022-08-09T15:15:24.845Z,35.57
2022-08-09T15:17:56.860Z,35.40
2022-08-09T15:21:56.461Z,35.00
2022-08-09T15:24:01.179Z,34.79
2022-08-09T15:26:05.029Z,34.72
2022-08-09T15:28:36.914Z,34.58
2022-08-09T15:31:17.979Z,34.65
2022-08-09T15:34:27.516Z,34.58
2022-08-09T15:36:34.735Z,34.65
2022-08-09T15:39:04.780Z,34.63
2022-08-09T15:41:33.941Z,34.52
2022-08-09T15:44:02.383Z,34.62
2022-08-09T15:46:32.828Z,34.65
2022-08-09T15:49:20.601Z,34.43
2022-08-09T15:52:04.630Z,34.49
2022-08-09T15:54:48.929Z,34.30
2022-08-09T15:57:19.099Z,34.18
2022-08-09T16:00:03.204Z,34.06
2022-08-09T16:02:31.073Z,34.04
2022-08-09T16:04:58.957Z,34.07
2022-08-09T16:07:30.479Z,33.94
2022-08-09T16:10:38.814Z,33.70
2022-08-09T16:13:01.019Z,33.57
2022-08-09T16:16:12.274Z,33.48
2022-08-09T16:18:16.917Z,33.23
2022-08-09T16:20:46.667Z,33.22
2022-08-09T16:23:14.864Z,33.18
2022-08-09T16:25:49.744Z,33.11
2022-08-09T16:28:17.871Z,33.01
2022-08-09T16:30:58.822Z,32.98
2022-08-09T16:33:30.937Z,32.91
2022-08-09T16:36:11.709Z,32.80
2022-08-09T16:38:44.351Z,32.72
2022-08-09T16:41:39.334Z,32.64
2022-08-09T16:44:08.877Z,32.67
2022-08-09T16:46:36.857Z,32.64
2022-08-09T16:49:16.902Z,32.59
2022-08-09T16:51:55.259Z,32.61
2022-08-09T16:54:34.055Z,32.62
2022-08-09T16:57:04.306Z,32.57
2022-08-09T16:59:34.660Z,32.63
2022-08-09T17:02:03.058Z,32.56
2022-08-09T17:04:33.441Z,32.47
2022-08-09T17:08:41.483Z,32.44
2022-08-09T17:09:49.323Z,32.29
2022-08-09T17:12:19.913Z,32.18
2022-08-09T17:14:50.680Z,31.94
2022-08-09T17:17:26.884Z,31.72
2022-08-09T17:20:28.496Z,31.54
2022-08-09T17:22:50.254Z,31.39
2022-08-09T17:25:20.187Z,31.21
2022-08-09T17:27:53.867Z,31.11
2022-08-09T17:30:25.665Z,31.08
2022-08-09T17:32:55.050Z,31.00
2022-08-09T17:35:28.941Z,31.01
2022-08-09T17:38:11.659Z,30.93
2022-08-09T17:40:42.766Z,30.88
2022-08-09T17:43:34.657Z,30.78
2022-08-09T17:46:07.095Z,30.70
2022-08-09T17:48:38.983Z,30.54
2022-08-09T17:51:18.821Z,30.40
2022-08-09T17:53:51.903Z,30.33
2022-08-09T17:56:27.647Z,30.20
2022-08-09T17:59:11.562Z,30.13
2022-08-09T18:02:03.702Z,30.14
2022-08-09T18:04:28.539Z,30.14
2022-08-09T18:06:57.356Z,30.08
2022-08-09T18:09:40.332Z,30.08
2022-08-09T18:12:17.216Z,30.02
2022-08-09T18:14:54.480Z,29.98
2022-08-09T18:17:27.123Z,29.95
2022-08-09T18:20:57.011Z,29.85
2022-08-09T18:23:04.717Z,29.72
2022-08-09T18:25:50.329Z,29.71
2022-08-09T18:30:37.645Z,29.65
2022-08-09T18:31:10.908Z,29.58
2022-08-09T18:33:40.206Z,29.49
2022-08-09T18:36:14.226Z,29.43
2022-08-09T18:38:58.792Z,29.42
2022-08-09T18:41:29.220Z,29.38
2022-08-09T18:44:03.164Z,29.39
2022-08-09T18:46:46.177Z,29.31
2022-08-09T18:49:21.448Z,29.17
2022-08-09T18:51:54.972Z,29.13
2022-08-09T18:54:29.508Z,29.08
2022-08-09T18:57:05.775Z,28.99
2022-08-09T18:59:49.167Z,28.91
2022-08-09T19:02:30.522Z,28.82
2022-08-09T19:05:04.343Z,28.68
2022-08-09T19:08:04.103Z,28.52
2022-08-09T19:10:39.016Z,28.46
2022-08-09T19:13:21.953Z,28.41
2022-08-09T19:15:52.622Z,28.34
2022-08-09T19:18:33.309Z,28.28
2022-08-09T19:21:05.507Z,28.19
2022-08-09T19:24:31.981Z,28.13
2022-08-09T19:26:29.504Z,28.14
2022-08-09T19:29:02.411Z,28.15
2022-08-09T19:31:44.281Z,28.13
2022-08-09T19:34:21.922Z,28.07
2022-08-09T19:36:51.983Z,27.98
2022-08-09T19:39:20.827Z,27.92
2022-08-09T19:42:08.470Z,27.88
2022-08-09T19:44:36.956Z,27.88
2022-08-09T19:47:05.062Z,27.88
2022-08-09T19:50:06.677Z,27.84
2022-08-09T19:52:22.634Z,27.79
2022-08-09T19:54:52.057Z,27.76
2022-08-09T19:57:25.763Z,27.72
2022-08-09T19:59:59.229Z,27.62
2022-08-09T20:04:07.014Z,27.58
2022-08-09T20:05:24.854Z,27.56
2022-08-09T20:07:57.152Z,27.56
2022-08-09T20:10:34.073Z,27.47
2022-08-09T20:13:05.463Z,27.36
2022-08-09T20:16:38.148Z,27.27
2022-08-09T20:18:22.785Z,27.13
2022-08-09T20:20:57.988Z,27.04
2022-08-09T20:23:39.245Z,26.91
2022-08-09T20:26:09.969Z,26.78
2022-08-09T20:28:49.946Z,26.67
2022-08-09T20:31:18.278Z,26.57
2022-08-09T20:33:46.663Z,26.52
2022-08-09T20:36:21.808Z,26.46
2022-08-09T20:39:28.338Z,26.41
2022-08-09T20:41:43.801Z,26.30
2022-08-09T20:44:11.945Z,26.24
2022-08-09T20:46:43.139Z,26.19
2022-08-09T20:49:13.029Z,26.15
2022-08-09T20:51:43.925Z,26.05
2022-08-09T20:54:17.031Z,26.04
2022-08-09T20:56:49.800Z,25.99
2022-08-09T21:00:19.133Z,25.97
2022-08-09T21:02:11.414Z,25.94
2022-08-09T21:05:51.767Z,25.91
2022-08-09T21:07:40.743Z,25.89
2022-08-09T21:10:12.402Z,25.81
2022-08-09T21:12:40.315Z,25.76
2022-08-09T21:15:12.588Z,25.70
2022-08-09T21:18:22.980Z,25.68
2022-08-09T21:20:30.045Z,25.59
2022-08-09T21:23:00.407Z,25.57
2022-08-09T21:25:56.311Z,25.55
2022-08-09T21:28:35.212Z,25.52
2022-08-09T21:31:19.414Z,25.51
2022-08-09T21:33:56.810Z,25.40
2022-08-09T21:36:28.997Z,25.29
2022-08-09T21:38:59.588Z,25.22
2022-08-09T21:42:05.399Z,25.19
2022-08-09T21:44:33.068Z,25.10
2022-08-09T21:47:03.570Z,25.01
2022-08-09T21:49:39.590Z,24.96
2022-08-09T21:52:16.525Z,24.91
2022-08-09T21:54:49.697Z,24.86
2022-08-09T21:57:38.229Z,24.80
2022-08-09T22:00:17.490Z,24.75
2022-08-09T22:02:58.934Z,24.68
2022-08-09T22:05:36.771Z,24.66
2022-08-09T22:08:13.965Z,24.60
2022-08-09T22:11:05.176Z,24.52
2022-08-09T22:13:35.465Z,24.48
2022-08-09T22:16:07.492Z,24.51
2022-08-09T22:18:37.128Z,24.56
2022-08-09T22:21:10.035Z,24.59
2022-08-09T22:23:59.011Z,24.62
2022-08-09T22:26:34.706Z,24.67
2022-08-09T22:29:07.270Z,24.71
2022-08-09T22:31:35.658Z,24.73
2022-08-09T22:34:03.529Z,24.73
2022-08-09T22:36:46.141Z,24.73
2022-08-09T22:39:20.710Z,24.72
2022-08-09T22:42:06.064Z,24.69
2022-08-09T22:44:45.556Z,24.62
2022-08-09T22:48:15.361Z,24.62
2022-08-09T22:50:01.676Z,24.60
2022-08-09T22:52:29.649Z,24.57
2022-08-09T22:54:57.720Z,24.54
2022-08-09T22:57:35.480Z,24.48
2022-08-09T23:00:04.152Z,24.39
2022-08-09T23:02:34.041Z,24.36
2022-08-09T23:05:02.428Z,24.27
2022-08-09T23:08:21.820Z,24.14
2022-08-09T23:10:43.662Z,23.98
2022-08-09T23:13:13.774Z,23.92
2022-08-09T23:15:41.819Z,23.86
2022-08-09T23:18:09.792Z,23.76
2022-08-09T23:20:37.671Z,23.71
2022-08-09T23:23:05.640Z,23.59
2022-08-09T23:25:33.711Z,23.56
2022-08-09T23:28:15.765Z,23.46
2022-08-09T23:30:51.888Z,23.40
2022-08-09T23:33:20.493Z,23.40
2022-08-09T23:36:06.546Z,23.38
2022-08-09T23:38:36.046Z,23.37
2022-08-09T23:41:27.990Z,23.33
2022-08-09T23:43:57.253Z,23.31
2022-08-09T23:46:26.608Z,23.26
2022-08-09T23:48:54.574Z,23.26
2022-08-09T23:51:22.633Z,23.29
2022-08-09T23:53:52.618Z,23.27
2022-08-09T23:56:53.296Z,23.28
2022-08-09T23:59:12.053Z,23.24
